Time;durP1;ratioP1;P1;durP2;ratioP2;P2;SDS_P1;SDS_P2;PMS_P1;PMS_P2;Temp;Humidity;BMP_temperature;BMP_pressure;BME280_temperature;BME280_humidity;BME280_pressure;Samples;Min_cycle;Max_cycle;Signal;HPM_P1;HPM_P2
2023/01/30 00:01:24;;;;;;;16.75;10.23;;;;;;;;;;5050352;28;20396;-46
2023/01/30 00:03:50;;;;;;;20.27;10.85;;;;;;;;;;5050183;28;20055;-46
2023/01/30 00:06:17;;;;;;;17.83;10.38;;;;;;;;;;5050355;28;20381;-46
2023/01/30 00:08:43;;;;;;;15.52;9.50;;;;;;;;;;5030549;28;20053;-46
2023/01/30 00:11:10;;;;;;;16.92;9.32;;;;;;;;;;5030301;28;20025;-47
2023/01/30 00:13:37;;;;;;;15.73;9.07;;;;;;;;;;5030190;28;20037;-47
2023/01/30 00:16:03;;;;;;;18.35;9.88;;;;;;;;;;5030291;28;20091;-46
2023/01/30 00:18:30;;;;;;;18.73;10.82;;;;;;;;;;5029785;28;20029;-46
2023/01/30 00:20:59;;;;;;;16.90;9.48;;;;;;;;;;5030319;28;20024;-46
2023/01/30 00:23:26;;;;;;;16.25;9.10;;;;;;;;;;5049537;28;20043;-48
2023/01/30 00:25:52;;;;;;;15.30;8.55;;;;;;;;;;5050107;28;20461;-46
2023/01/30 00:28:18;;;;;;;12.35;7.43;;;;;;;;;;5049921;28;20041;-46
2023/01/30 00:30:44;;;;;;;15.90;8.27;;;;;;;;;;5049856;28;20206;-45
2023/01/30 00:33:10;;;;;;;14.85;8.27;;;;;;;;;;5049603;28;20067;-47
2023/01/30 00:35:37;;;;;;;16.80;8.95;;;;;;;;;;5049513;28;20029;-46
2023/01/30 00:38:03;;;;;;;20.13;10.05;;;;;;;;;;5049703;28;20090;-46
2023/01/30 00:40:29;;;;;;;17.05;9.55;;;;;;;;;;5049674;28;20112;-47
2023/01/30 00:48:26;;;;;;;12.55;7.50;;;;;;;;;;5049560;28;20129;-47
2023/01/30 00:50:52;;;;;;;12.18;7.32;;;;;;;;;;5049539;28;20543;-45
2023/01/30 00:53:18;;;;;;;14.38;7.93;;;;;;;;;;5049871;28;20063;-46
2023/01/30 00:55:44;;;;;;;12.88;7.22;;;;;;;;;;5049586;28;20104;-47
2023/01/30 00:58:11;;;;;;;16.05;8.68;;;;;;;;;;5048631;28;20037;-46
2023/01/30 01:00:37;;;;;;;13.70;7.82;;;;;;;;;;5047120;28;20634;-46
2023/01/30 01:03:04;;;;;;;12.95;7.70;;;;;;;;;;5047069;28;20115;-45
2023/01/30 01:05:30;;;;;;;12.48;6.80;;;;;;;;;;5046754;28;20032;-46
2023/01/30 06:13:49;;;;;;;4.95;3.58;;;;;;;;;;5047375;28;20051;-47
2023/01/30 06:16:16;;;;;;;4.95;3.30;;;;;;;;;;5051736;28;20036;-46
2023/01/30 06:18:44;;;;;;;5.93;3.40;;;;;;;;;;5047227;28;20065;-46
2023/01/30 06:21:10;;;;;;;5.55;3.40;;;;;;;;;;5046772;28;20025;-47
2023/01/30 06:23:37;;;;;;;5.35;3.58;;;;;;;;;;5046607;28;20060;-46
2023/01/30 06:26:03;;;;;;;9.30;4.78;;;;;;;;;;5046501;28;20013;-45
2023/01/30 06:28:29;;;;;;;7.70;4.53;;;;;;;;;;5047744;28;20082;-45
2023/01/30 06:30:55;;;;;;;6.25;4.45;;;;;;;;;;5046157;28;20035;-50
2023/01/30 06:33:21;;;;;;;5.93;3.70;;;;;;;;;;5046689;28;20044;-45
2023/01/30 06:35:48;;;;;;;6.53;4.13;;;;;;;;;;5052607;28;20028;-46
2023/01/30 06:38:15;;;;;;;5.43;3.92;;;;;;;;;;5066716;28;20036;-48
2023/01/30 06:40:44;;;;;;;7.10;4.65;;;;;;;;;;5066680;28;20020;-46
2023/01/30 06:43:10;;;;;;;5.93;4.13;;;;;;;;;;5066248;28;20067;-46
2023/01/30 06:45:37;;;;;;;6.97;4.43;;;;;;;;;;5062379;28;20112;-47
2023/01/30 06:48:04;;;;;;;6.55;4.32;;;;;;;;;;5046650;28;20037;-47
2023/01/30 06:50:30;;;;;;;6.22;4.00;;;;;;;;;;5046878;28;20037;-45
2023/01/30 06:52:56;;;;;;;8.20;5.15;;;;;;;;;;5046266;28;20123;-48
2023/01/30 06:55:23;;;;;;;6.55;4.10;;;;;;;;;;5046693;28;20017;-47
2023/01/30 06:57:50;;;;;;;6.45;4.35;;;;;;;;;;5059440;28;20041;-45
2023/01/30 07:00:19;;;;;;;7.00;4.22;;;;;;;;;;5047407;28;20108;-46
2023/01/30 07:02:46;;;;;;;7.60;4.18;;;;;;;;;;5048055;28;20029;-47
2023/01/30 07:05:12;;;;;;;7.30;4.68;;;;;;;;;;5048114;28;20155;-47
2023/01/30 07:07:38;;;;;;;8.95;5.40;;;;;;;;;;5048705;28;20086;-46
2023/01/30 07:10:06;;;;;;;9.43;6.07;;;;;;;;;;5063108;28;20109;-46
2023/01/30 07:12:32;;;;;;;7.93;5.07;;;;;;;;;;5068394;28;20100;-45
2023/01/30 07:14:58;;;;;;;7.68;4.90;;;;;;;;;;5056927;28;20037;-46
2023/01/30 07:17:24;;;;;;;7.43;4.85;;;;;;;;;;5035488;28;20464;-45
2023/01/30 07:19:50;;;;;;;7.75;5.25;;;;;;;;;;5030140;28;20413;-47
2023/01/30 07:22:16;;;;;;;8.93;5.93;;;;;;;;;;5030662;28;20033;-47
2023/01/30 07:24:42;;;;;;;9.23;5.88;;;;;;;;;;5031231;28;20108;-46
2023/01/30 07:27:10;;;;;;;9.00;5.80;;;;;;;;;;5030631;28;20066;-46
2023/01/30 07:29:36;;;;;;;8.25;5.22;;;;;;;;;;5030750;28;20036;-46
2023/01/30 07:32:03;;;;;;;6.65;4.88;;;;;;;;;;5030939;28;20470;-47
2023/01/30 07:34:29;;;;;;;7.85;4.85;;;;;;;;;;5031039;28;20033;-46
2023/01/30 07:36:55;;;;;;;7.40;4.47;;;;;;;;;;5030610;28;20048;-47
2023/01/30 07:39:21;;;;;;;5.65;4.13;;;;;;;;;;5030696;28;20061;-45
2023/01/30 07:41:47;;;;;;;8.18;4.50;;;;;;;;;;5030599;28;20029;-47
2023/01/30 07:44:13;;;;;;;6.20;4.03;;;;;;;;;;5031129;28;20096;-46
2023/01/30 07:46:39;;;;;;;7.35;4.93;;;;;;;;;;5030301;28;20104;-46
2023/01/30 07:49:06;;;;;;;8.40;5.43;;;;;;;;;;5030220;28;20063;-46
2023/01/30 07:51:32;;;;;;;7.88;5.03;;;;;;;;;;5024381;28;20116;-47
2023/01/30 07:54:00;;;;;;;7.65;5.13;;;;;;;;;;5030349;28;20021;-46
2023/01/30 07:56:27;;;;;;;8.23;4.65;;;;;;;;;;5030068;28;20390;-48
2023/01/30 07:58:54;;;;;;;6.50;4.20;;;;;;;;;;5030649;28;20470;-46
2023/01/30 08:01:20;;;;;;;6.63;4.70;;;;;;;;;;5026421;28;20524;-47
2023/01/30 08:03:48;;;;;;;10.15;6.38;;;;;;;;;;5029958;28;20032;-46
2023/01/30 08:06:14;;;;;;;9.95;5.80;;;;;;;;;;5031068;28;20024;-46
2023/01/30 08:08:41;;;;;;;8.70;5.57;;;;;;;;;;5030411;28;20033;-47
2023/01/30 08:11:07;;;;;;;9.23;5.50;;;;;;;;;;5030555;28;20500;-47
2023/01/30 08:13:33;;;;;;;10.73;6.75;;;;;;;;;;5025225;28;20045;-47
2023/01/30 08:15:59;;;;;;;9.75;6.10;;;;;;;;;;5046868;28;20041;-45
2023/01/30 08:18:25;;;;;;;8.27;5.32;;;;;;;;;;5044264;28;20036;-48
2023/01/30 08:20:51;;;;;;;7.97;4.82;;;;;;;;;;5050150;28;20033;-45
2023/01/30 08:23:18;;;;;;;9.75;5.88;;;;;;;;;;5047120;28;20060;-45
2023/01/30 08:25:44;;;;;;;6.63;4.63;;;;;;;;;;5045875;28;20449;-47
2023/01/30 08:28:10;;;;;;;7.35;4.97;;;;;;;;;;5047418;28;20044;-47
2023/01/30 08:30:36;;;;;;;6.75;4.30;;;;;;;;;;5048665;28;20736;-46
2023/01/30 08:33:02;;;;;;;7.00;4.95;;;;;;;;;;5048994;28;20025;-45
2023/01/30 08:35:28;;;;;;;7.65;4.82;;;;;;;;;;5047804;28;20118;-46
2023/01/30 08:37:54;;;;;;;6.28;4.22;;;;;;;;;;5049350;28;20021;-47
2023/01/30 08:40:20;;;;;;;8.00;5.13;;;;;;;;;;5048462;28;20057;-46
2023/01/30 08:42:46;;;;;;;6.45;4.22;;;;;;;;;;5047959;28;20033;-46
2023/01/30 08:45:12;;;;;;;6.40;3.97;;;;;;;;;;5048789;28;20040;-46
2023/01/30 08:47:38;;;;;;;5.60;3.95;;;;;;;;;;5048083;28;20025;-47
2023/01/30 08:50:05;;;;;;;5.70;3.83;;;;;;;;;;5048711;28;20419;-46
2023/01/30 08:52:34;;;;;;;5.85;3.70;;;;;;;;;;5048513;28;20025;-47
2023/01/30 08:55:00;;;;;;;5.07;3.40;;;;;;;;;;5048531;28;20030;-46
2023/01/30 08:57:26;;;;;;;6.07;4.15;;;;;;;;;;5047616;28;20044;-46
2023/01/30 08:59:52;;;;;;;6.70;4.13;;;;;;;;;;5048467;28;20025;-45
2023/01/30 09:02:18;;;;;;;6.32;4.18;;;;;;;;;;5045622;28;20028;-47
2023/01/30 09:04:44;;;;;;;5.05;3.45;;;;;;;;;;5047784;28;20032;-46
2023/01/30 09:07:10;;;;;;;6.78;3.63;;;;;;;;;;5048239;28;20040;-47
2023/01/30 09:09:36;;;;;;;6.95;4.40;;;;;;;;;;5048449;28;20124;-48
2023/01/30 09:12:02;;;;;;;6.43;4.13;;;;;;;;;;5046145;28;20025;-46
2023/01/30 09:14:28;;;;;;;6.28;3.78;;;;;;;;;;5047586;28;20515;-46
2023/01/30 09:16:54;;;;;;;6.43;3.95;;;;;;;;;;5048214;28;20031;-47
2023/01/30 09:19:24;;;;;;;5.00;3.50;;;;;;;;;;5048181;28;20025;-49
2023/01/30 09:21:50;;;;;;;5.75;3.40;;;;;;;;;;5046239;28;20017;-46
2023/01/30 09:24:16;;;;;;;5.53;3.67;;;;;;;;;;5047709;28;20029;-48
2023/01/30 09:26:44;;;;;;;5.10;3.47;;;;;;;;;;5046724;28;20067;-48
2023/01/30 09:29:13;;;;;;;4.53;3.33;;;;;;;;;;5047550;28;20040;-50
2023/01/30 09:31:40;;;;;;;5.63;3.45;;;;;;;;;;5046787;28;20471;-46
2023/01/30 09:34:06;;;;;;;4.72;3.35;;;;;;;;;;5048007;28;20539;-49
2023/01/30 09:36:32;;;;;;;4.53;2.80;;;;;;;;;;5053116;28;20680;-45
2023/01/30 09:38:59;;;;;;;4.38;3.20;;;;;;;;;;5048806;28;20033;-48
2023/01/30 09:41:28;;;;;;;4.72;3.15;;;;;;;;;;5048463;28;20393;-46
2023/01/30 09:43:54;;;;;;;4.10;3.30;;;;;;;;;;5047247;28;20052;-47
2023/01/30 09:46:43;;;;;;;4.20;3.28;;;;;;;;;;5046926;28;20092;-46
2023/01/30 09:49:12;;;;;;;5.03;3.72;;;;;;;;;;5042968;28;20124;-47
2023/01/30 09:51:57;;;;;;;6.25;4.38;;;;;;;;;;5046860;28;20381;-48
2023/01/30 09:54:29;;;;;;;6.20;3.92;;;;;;;;;;5048118;28;20033;-46
2023/01/30 09:56:57;;;;;;;7.22;4.43;;;;;;;;;;5047089;28;20381;-46
2023/01/30 09:59:29;;;;;;;6.45;4.40;;;;;;;;;;5046798;28;20116;-50
2023/01/30 10:02:04;;;;;;;5.60;4.10;;;;;;;;;;5047897;28;20021;-48
2023/01/30 10:04:31;;;;;;;6.18;4.10;;;;;;;;;;5045665;28;20017;-46
2023/01/30 10:07:00;;;;;;;6.88;4.05;;;;;;;;;;5047241;28;20036;-46
2023/01/30 10:09:38;;;;;;;5.85;3.97;;;;;;;;;;5047778;28;20083;-46
2023/01/30 10:12:04;;;;;;;5.63;3.90;;;;;;;;;;5042397;28;20075;-46
2023/01/30 10:14:30;;;;;;;5.57;4.15;;;;;;;;;;5045982;28;20033;-47
2023/01/30 10:17:00;;;;;;;5.47;3.78;;;;;;;;;;5044050;28;20064;-46
2023/01/30 10:19:31;;;;;;;5.22;3.67;;;;;;;;;;5047156;28;20895;-49
2023/01/30 10:21:57;;;;;;;5.40;3.45;;;;;;;;;;5047069;28;20032;-48
2023/01/30 10:24:42;;;;;;;4.90;3.20;;;;;;;;;;5047179;28;20107;-48
2023/01/30 10:27:12;;;;;;;6.30;4.00;;;;;;;;;;5045147;28;20071;-46
2023/01/30 10:29:39;;;;;;;6.60;4.13;;;;;;;;;;5046745;28;20036;-46
2023/01/30 10:32:11;;;;;;;6.47;3.83;;;;;;;;;;5045601;28;20107;-48
2023/01/30 10:34:42;;;;;;;7.20;4.25;;;;;;;;;;5046431;28;20029;-49
2023/01/30 10:37:18;;;;;;;6.47;3.80;;;;;;;;;;5046080;28;20025;-46
2023/01/30 10:39:51;;;;;;;6.63;4.10;;;;;;;;;;5045789;28;20029;-47
2023/01/30 10:42:21;;;;;;;5.80;3.60;;;;;;;;;;5045521;28;20044;-46
2023/01/30 10:44:47;;;;;;;5.53;3.70;;;;;;;;;;5044408;28;20025;-48
2023/01/30 10:47:25;;;;;;;5.60;3.65;;;;;;;;;;5045661;28;20028;-45
2023/01/30 10:49:52;;;;;;;5.07;3.60;;;;;;;;;;5030233;28;20595;-46
2023/01/30 10:52:25;;;;;;;5.07;3.38;;;;;;;;;;5047916;28;20071;-46
2023/01/30 10:55:07;;;;;;;5.70;3.67;;;;;;;;;;5048181;28;20029;-46
2023/01/30 10:57:33;;;;;;;4.57;3.22;;;;;;;;;;5049534;28;20810;-47
2023/01/30 11:00:04;;;;;;;4.20;3.25;;;;;;;;;;5049489;28;20103;-48
2023/01/30 11:02:40;;;;;;;4.55;3.53;;;;;;;;;;5048176;28;20412;-47
2023/01/30 11:05:25;;;;;;;4.95;3.53;;;;;;;;;;5049645;28;20500;-46
2023/01/30 11:07:51;;;;;;;9.13;5.50;;;;;;;;;;5047378;28;20017;-47
2023/01/30 11:10:27;;;;;;;7.78;4.82;;;;;;;;;;5048313;28;20452;-47
2023/01/30 11:13:13;;;;;;;8.20;4.90;;;;;;;;;;5049508;28;20029;-46
2023/01/30 11:15:44;;;;;;;8.90;5.00;;;;;;;;;;5049301;28;20052;-50
2023/01/30 11:18:10;;;;;;;8.65;4.68;;;;;;;;;;5049475;28;20427;-48
2023/01/30 11:20:40;;;;;;;6.68;4.45;;;;;;;;;;5051082;28;20021;-45
2023/01/30 11:23:20;;;;;;;6.45;4.30;;;;;;;;;;5050893;28;20025;-46
2023/01/30 11:25:47;;;;;;;7.15;4.68;;;;;;;;;;5050437;28;20028;-48
2023/01/30 11:28:16;;;;;;;6.38;4.00;;;;;;;;;;5047539;28;20021;-47
2023/01/30 11:30:42;;;;;;;6.60;4.05;;;;;;;;;;5049887;28;20029;-48
2023/01/30 11:33:12;;;;;;;5.82;3.80;;;;;;;;;;5050240;28;20032;-47
2023/01/30 11:35:58;;;;;;;6.32;4.32;;;;;;;;;;5050475;28;20036;-46
2023/01/30 11:38:31;;;;;;;6.10;4.03;;;;;;;;;;5049535;28;20025;-49
2023/01/30 11:41:03;;;;;;;6.80;4.40;;;;;;;;;;5049863;28;20150;-47
2023/01/30 11:43:29;;;;;;;6.82;4.47;;;;;;;;;;5049072;28;20497;-46
2023/01/30 11:45:55;;;;;;;7.55;4.03;;;;;;;;;;5049797;28;20171;-46
2023/01/30 11:48:25;;;;;;;5.25;3.40;;;;;;;;;;5049574;28;20025;-48
2023/01/30 11:50:56;;;;;;;5.78;3.75;;;;;;;;;;5050170;28;20031;-50
2023/01/30 11:53:28;;;;;;;5.47;3.65;;;;;;;;;;5044283;28;20036;-46
2023/01/30 11:55:58;;;;;;;5.07;3.55;;;;;;;;;;5049420;28;20063;-49
2023/01/30 11:58:24;;;;;;;6.43;4.15;;;;;;;;;;5048873;28;20103;-49
2023/01/30 12:00:50;;;;;;;6.18;4.10;;;;;;;;;;5048258;28;20920;-48
2023/01/30 12:03:18;;;;;;;5.22;3.85;;;;;;;;;;5047746;28;20021;-47
2023/01/30 12:05:46;;;;;;;7.15;3.70;;;;;;;;;;5041383;28;20035;-50
2023/01/30 12:08:12;;;;;;;6.80;4.85;;;;;;;;;;5048266;28;20785;-47
2023/01/30 12:10:43;;;;;;;8.52;5.32;;;;;;;;;;5048055;28;20040;-49
2023/01/30 12:13:29;;;;;;;9.00;5.40;;;;;;;;;;5045011;28;20602;-47
2023/01/30 12:16:10;;;;;;;7.78;4.78;;;;;;;;;;5013187;28;20052;-51
2023/01/30 12:18:39;;;;;;;6.18;4.63;;;;;;;;;;5043974;28;20090;-48
2023/01/30 12:21:10;;;;;;;6.97;4.72;;;;;;;;;;5046106;28;20128;-47
2023/01/30 12:23:43;;;;;;;5.80;3.83;;;;;;;;;;5044187;28;20116;-50
2023/01/30 12:26:15;;;;;;;6.72;4.63;;;;;;;;;;5043834;28;20021;-49
2023/01/30 12:28:59;;;;;;;6.72;4.47;;;;;;;;;;5043789;28;20396;-47
2023/01/30 12:31:29;;;;;;;6.32;4.13;;;;;;;;;;5045384;28;20082;-45
2023/01/30 12:33:55;;;;;;;6.57;4.32;;;;;;;;;;5045883;28;20040;-45
2023/01/30 12:36:30;;;;;;;6.95;4.50;;;;;;;;;;5046254;28;20033;-47
2023/01/30 12:39:05;;;;;;;8.32;5.13;;;;;;;;;;5039623;28;20408;-46
2023/01/30 12:41:34;;;;;;;6.25;4.63;;;;;;;;;;5045319;28;20033;-46
2023/01/30 12:44:19;;;;;;;7.07;4.55;;;;;;;;;;5045386;28;20032;-45
2023/01/30 12:47:04;;;;;;;9.05;5.50;;;;;;;;;;5045281;28;20518;-46
2023/01/30 12:50:02;;;;;;;8.02;5.40;;;;;;;;;;5045950;28;20547;-47
2023/01/30 12:52:47;;;;;;;9.73;4.93;;;;;;;;;;5012548;28;20041;-46
2023/01/30 12:55:25;;;;;;;6.43;4.13;;;;;;;;;;5045929;28;20586;-44
2023/01/30 12:58:02;;;;;;;6.75;4.35;;;;;;;;;;5048682;28;20496;-44
2023/01/30 13:00:48;;;;;;;5.40;3.85;;;;;;;;;;5038416;28;20037;-45
2023/01/30 13:03:14;;;;;;;6.28;3.88;;;;;;;;;;5015568;28;20037;-46
2023/01/30 13:05:45;;;;;;;6.95;4.50;;;;;;;;;;5047103;28;20029;-47
2023/01/30 13:08:11;;;;;;;8.52;5.43;;;;;;;;;;5046834;28;20064;-45
2023/01/30 13:10:40;;;;;;;8.90;5.80;;;;;;;;;;5045808;28;20032;-46
2023/01/30 13:13:25;;;;;;;8.68;5.95;;;;;;;;;;5044341;28;20462;-48
2023/01/30 13:15:51;;;;;;;13.98;8.00;;;;;;;;;;5038013;28;20119;-47
2023/01/30 13:18:20;;;;;;;11.13;6.88;;;;;;;;;;5046681;28;20037;-46
2023/01/30 13:21:01;;;;;;;11.23;6.70;;;;;;;;;;5046646;28;20021;-46
2023/01/30 13:23:27;;;;;;;9.45;5.97;;;;;;;;;;5048538;28;20447;-47
2023/01/30 13:26:02;;;;;;;10.98;6.78;;;;;;;;;;5047160;28;20029;-46
2023/01/30 13:28:31;;;;;;;10.52;6.18;;;;;;;;;;5045874;28;20044;-46
2023/01/30 13:30:58;;;;;;;11.15;6.68;;;;;;;;;;5045468;28;20496;-47
2023/01/30 13:33:26;;;;;;;10.90;6.32;;;;;;;;;;5046356;28;20083;-46
2023/01/30 13:36:05;;;;;;;9.93;5.95;;;;;;;;;;5046254;28;20035;-50
2023/01/30 13:38:31;;;;;;;7.45;5.05;;;;;;;;;;5046528;28;20056;-50
2023/01/30 13:40:59;;;;;;;7.28;4.53;;;;;;;;;;5046424;28;20025;-46
2023/01/30 13:43:28;;;;;;;9.77;5.80;;;;;;;;;;5046354;28;20124;-50
2023/01/30 13:45:56;;;;;;;10.02;5.95;;;;;;;;;;5046542;28;20111;-46
2023/01/30 13:48:22;;;;;;;11.13;6.75;;;;;;;;;;5047110;28;20060;-49
2023/01/30 13:51:03;;;;;;;10.55;6.20;;;;;;;;;;5046949;28;20102;-47
2023/01/30 13:53:29;;;;;;;9.80;5.68;;;;;;;;;;5046066;28;20033;-47
2023/01/30 13:56:02;;;;;;;8.73;5.72;;;;;;;;;;5044150;28;20052;-46
2023/01/30 13:58:42;;;;;;;9.40;6.28;;;;;;;;;;5047219;28;20075;-47
2023/01/30 14:01:09;;;;;;;11.88;6.90;;;;;;;;;;5046453;28;20407;-47
2023/01/30 14:03:36;;;;;;;9.68;6.38;;;;;;;;;;5044411;28;20025;-47
2023/01/30 14:06:04;;;;;;;9.65;6.25;;;;;;;;;;5047448;28;20071;-48
2023/01/30 14:08:30;;;;;;;9.10;6.03;;;;;;;;;;5047453;28;20033;-46
2023/01/30 14:10:57;;;;;;;7.80;5.43;;;;;;;;;;5028200;28;20667;-50
2023/01/30 14:13:24;;;;;;;7.57;5.13;;;;;;;;;;5032820;28;20736;-46
2023/01/30 14:15:57;;;;;;;8.65;5.03;;;;;;;;;;5047924;28;20040;-46
2023/01/30 14:18:26;;;;;;;8.48;5.53;;;;;;;;;;5047063;28;20048;-45
2023/01/30 14:20:52;;;;;;;8.00;5.07;;;;;;;;;;5048033;28;20518;-47
2023/01/30 14:23:21;;;;;;;8.82;5.72;;;;;;;;;;5052025;28;20525;-47
2023/01/30 14:25:51;;;;;;;6.18;4.50;;;;;;;;;;5051279;28;20036;-47
2023/01/30 14:28:17;;;;;;;7.50;4.90;;;;;;;;;;5051685;28;20029;-47
2023/01/30 14:30:44;;;;;;;7.75;4.93;;;;;;;;;;5048594;28;20033;-46
2023/01/30 14:33:32;;;;;;;10.35;4.32;;;;;;;;;;5051010;28;20037;-46
2023/01/30 14:35:58;;;;;;;6.95;4.40;;;;;;;;;;5049591;28;20119;-46
2023/01/30 14:38:24;;;;;;;6.22;4.15;;;;;;;;;;5049644;28;20115;-46
2023/01/30 14:40:59;;;;;;;8.43;4.97;;;;;;;;;;5050530;28;20017;-47
2023/01/30 14:43:25;;;;;;;7.72;4.90;;;;;;;;;;5049952;28;20025;-46
2023/01/30 14:45:55;;;;;;;6.38;4.10;;;;;;;;;;5050559;28;20105;-46
2023/01/30 14:48:40;;;;;;;7.05;5.03;;;;;;;;;;5050506;28;20033;-51
2023/01/30 14:51:24;;;;;;;6.22;4.05;;;;;;;;;;5049524;28;20050;-47
2023/01/30 14:53:52;;;;;;;7.10;4.70;;;;;;;;;;5050199;28;20519;-49
2023/01/30 14:56:19;;;;;;;7.38;4.45;;;;;;;;;;5049993;28;20025;-46
2023/01/30 14:58:53;;;;;;;5.85;3.95;;;;;;;;;;5049512;28;20095;-47
2023/01/30 15:01:20;;;;;;;6.85;4.43;;;;;;;;;;5050320;28;20021;-48
2023/01/30 15:03:48;;;;;;;7.18;4.60;;;;;;;;;;5049417;28;20021;-46
2023/01/30 15:06:15;;;;;;;7.32;4.32;;;;;;;;;;5049990;28;20509;-45
2023/01/30 15:08:43;;;;;;;7.00;4.40;;;;;;;;;;5049472;28;20025;-46
2023/01/30 15:11:30;;;;;;;6.95;4.43;;;;;;;;;;5049482;28;20407;-48
2023/01/30 15:14:15;;;;;;;7.47;4.65;;;;;;;;;;5049597;28;20044;-46
2023/01/30 15:16:56;;;;;;;8.38;5.50;;;;;;;;;;5034882;28;20033;-48
2023/01/30 15:19:41;;;;;;;7.88;5.32;;;;;;;;;;5028909;28;20056;-48
2023/01/30 15:22:26;;;;;;;7.07;4.68;;;;;;;;;;5019691;28;20574;-46
2023/01/30 15:25:10;;;;;;;6.45;4.20;;;;;;;;;;5029496;28;20021;-45
2023/01/30 15:27:59;;;;;;;7.25;4.53;;;;;;;;;;5030235;28;20029;-46
2023/01/30 15:30:55;;;;;;;6.45;4.22;;;;;;;;;;5017139;28;20053;-46
2023/01/30 15:33:22;;;;;;;7.32;4.20;;;;;;;;;;4999025;28;20045;-45
2023/01/30 15:35:48;;;;;;;6.30;4.45;;;;;;;;;;5029600;28;20468;-48
2023/01/30 15:38:31;;;;;;;7.38;4.55;;;;;;;;;;5028603;28;20065;-48
2023/01/30 15:41:01;;;;;;;8.38;4.70;;;;;;;;;;5028651;28;20044;-48
2023/01/30 15:43:36;;;;;;;8.40;5.40;;;;;;;;;;5029522;28;20029;-47
2023/01/30 15:46:29;;;;;;;7.38;5.45;;;;;;;;;;5027088;28;20553;-46
2023/01/30 15:49:10;;;;;;;8.77;5.82;;;;;;;;;;5018078;28;20128;-47
2023/01/30 15:51:36;;;;;;;8.57;5.65;;;;;;;;;;5028817;28;20033;-46
2023/01/30 15:54:08;;;;;;;7.65;5.30;;;;;;;;;;5027737;28;20037;-45
2023/01/30 15:56:34;;;;;;;8.88;4.90;;;;;;;;;;5014235;28;20033;-45
2023/01/30 15:59:01;;;;;;;6.90;4.72;;;;;;;;;;5021089;28;20029;-47
2023/01/30 16:01:27;;;;;;;7.90;4.95;;;;;;;;;;5018736;28;20022;-47
2023/01/30 16:03:56;;;;;;;7.43;4.70;;;;;;;;;;5024203;28;20785;-47
2023/01/30 16:06:31;;;;;;;6.43;4.10;;;;;;;;;;5023010;28;20021;-46
2023/01/30 16:09:05;;;;;;;6.78;4.20;;;;;;;;;;5024597;28;20017;-46
2023/01/30 16:11:34;;;;;;;7.63;4.95;;;;;;;;;;5024216;28;20060;-49
2023/01/30 16:14:00;;;;;;;7.43;4.90;;;;;;;;;;5028774;28;20038;-46
2023/01/30 16:16:27;;;;;;;6.30;3.88;;;;;;;;;;5030106;28;20087;-47
2023/01/30 16:18:55;;;;;;;13.00;7.28;;;;;;;;;;5029215;28;20057;-48
2023/01/30 16:21:23;;;;;;;13.50;7.30;;;;;;;;;;5029162;28;20018;-50
2023/01/30 16:23:52;;;;;;;11.43;6.85;;;;;;;;;;5033070;28;20045;-47
2023/01/30 16:26:20;;;;;;;10.88;6.00;;;;;;;;;;5039263;28;20032;-47
2023/01/30 16:28:48;;;;;;;9.13;5.05;;;;;;;;;;5030436;28;20065;-46
2023/01/30 16:31:16;;;;;;;11.02;5.72;;;;;;;;;;5029254;28;20057;-47
2023/01/30 16:33:49;;;;;;;8.40;5.10;;;;;;;;;;5029092;28;20030;-46
2023/01/30 16:36:21;;;;;;;7.65;4.70;;;;;;;;;;5030656;28;20471;-46
2023/01/30 16:38:48;;;;;;;8.32;4.65;;;;;;;;;;5029971;28;20053;-46
2023/01/30 16:41:49;;;;;;;7.78;4.47;;;;;;;;;;5030227;28;20087;-45
2023/01/30 16:44:19;;;;;;;8.77;5.30;;;;;;;;;;4924510;29;20035;-47
2023/01/30 16:46:45;;;;;;;7.93;4.75;;;;;;;;;;5008707;28;20064;-48
2023/01/30 16:49:16;;;;;;;7.85;4.50;;;;;;;;;;5029626;28;20471;-50
2023/01/30 16:51:42;;;;;;;8.70;4.78;;;;;;;;;;5028701;28;20067;-46
2023/01/30 16:54:20;;;;;;;9.65;5.45;;;;;;;;;;5029744;28;20075;-47
2023/01/30 16:56:49;;;;;;;9.15;5.38;;;;;;;;;;5032982;28;20030;-48
2023/01/30 16:59:19;;;;;;;8.20;4.95;;;;;;;;;;5029250;28;20056;-46
2023/01/30 17:01:45;;;;;;;6.65;4.30;;;;;;;;;;5020051;28;20132;-46
2023/01/30 17:04:20;;;;;;;9.07;5.25;;;;;;;;;;5030442;28;20025;-48
2023/01/30 17:06:56;;;;;;;8.70;4.78;;;;;;;;;;5041506;28;20060;-47
2023/01/30 17:09:31;;;;;;;8.98;5.32;;;;;;;;;;5030249;28;20033;-47
2023/01/30 17:11:57;;;;;;;8.90;5.03;;;;;;;;;;5029110;28;20122;-46
2023/01/30 17:14:24;;;;;;;8.93;5.20;;;;;;;;;;5036619;28;20041;-49
2023/01/30 17:16:59;;;;;;;8.27;5.22;;;;;;;;;;5049465;28;20035;-46
2023/01/30 17:19:26;;;;;;;7.75;4.95;;;;;;;;;;5048931;28;20025;-46
2023/01/30 17:21:53;;;;;;;7.82;5.05;;;;;;;;;;5048747;28;20032;-48
2023/01/30 17:24:20;;;;;;;8.05;5.22;;;;;;;;;;5049328;28;20019;-45
2023/01/30 17:26:48;;;;;;;9.40;5.57;;;;;;;;;;5047842;28;20028;-49
2023/01/30 17:29:14;;;;;;;9.48;5.80;;;;;;;;;;5049074;28;20025;-48
2023/01/30 17:31:46;;;;;;;14.20;8.02;;;;;;;;;;5048549;28;20025;-45
2023/01/30 17:34:12;;;;;;;13.65;8.10;;;;;;;;;;5048077;28;20036;-48
2023/01/30 17:36:39;;;;;;;12.63;7.43;;;;;;;;;;5048600;28;20458;-48
2023/01/30 17:39:09;;;;;;;10.60;6.43;;;;;;;;;;5047037;28;20425;-48
2023/01/30 17:41:35;;;;;;;11.75;7.22;;;;;;;;;;5048143;28;20454;-46
2023/01/30 17:44:01;;;;;;;11.32;6.90;;;;;;;;;;5046959;28;20109;-46
2023/01/30 17:46:33;;;;;;;10.30;6.25;;;;;;;;;;5047772;28;20071;-44
2023/01/30 17:48:59;;;;;;;10.95;6.97;;;;;;;;;;5046965;28;20484;-46
2023/01/30 17:51:25;;;;;;;11.15;6.60;;;;;;;;;;5047214;28;20064;-45
2023/01/30 17:53:51;;;;;;;11.20;6.53;;;;;;;;;;5046365;28;20396;-46
2023/01/30 17:56:19;;;;;;;10.57;6.50;;;;;;;;;;5047193;28;20039;-48
2023/01/30 17:58:45;;;;;;;9.10;5.93;;;;;;;;;;5047591;28;20502;-46
2023/01/30 18:01:13;;;;;;;9.45;5.57;;;;;;;;;;5047018;28;20029;-48
2023/01/30 18:03:39;;;;;;;11.00;6.32;;;;;;;;;;5047348;28;20454;-46
2023/01/30 18:06:06;;;;;;;10.88;6.57;;;;;;;;;;5046019;28;20028;-46
2023/01/30 18:08:32;;;;;;;10.10;6.05;;;;;;;;;;5045997;28;20039;-49
2023/01/30 18:10:58;;;;;;;10.15;6.43;;;;;;;;;;5044556;28;20036;-45
2023/01/30 18:13:24;;;;;;;9.95;5.97;;;;;;;;;;5045280;28;20028;-48
2023/01/30 18:15:50;;;;;;;10.10;5.63;;;;;;;;;;5044655;28;20567;-45
2023/01/30 18:18:16;;;;;;;11.35;6.30;;;;;;;;;;5045540;28;20029;-46
2023/01/30 18:20:42;;;;;;;11.18;6.35;;;;;;;;;;5045788;28;20536;-46
2023/01/30 18:23:08;;;;;;;11.40;6.68;;;;;;;;;;5044115;28;20021;-48
2023/01/30 18:25:34;;;;;;;12.32;7.03;;;;;;;;;;5044236;28;20034;-45
2023/01/30 18:28:01;;;;;;;11.88;7.00;;;;;;;;;;5044518;28;20556;-45
2023/01/30 18:30:27;;;;;;;11.32;6.65;;;;;;;;;;5045799;28;20108;-47
2023/01/30 18:32:53;;;;;;;10.70;6.22;;;;;;;;;;5045128;28;20157;-46
2023/01/30 18:35:20;;;;;;;11.50;6.90;;;;;;;;;;5045526;28;20465;-45
2023/01/30 18:37:46;;;;;;;10.35;6.63;;;;;;;;;;5044724;28;20068;-46
2023/01/30 18:40:13;;;;;;;10.30;6.22;;;;;;;;;;5044552;28;20029;-46
2023/01/30 18:42:40;;;;;;;12.45;6.70;;;;;;;;;;5044245;28;20074;-49
2023/01/30 18:45:06;;;;;;;11.13;6.65;;;;;;;;;;5045475;28;20107;-48
2023/01/30 18:47:32;;;;;;;12.18;7.18;;;;;;;;;;5044912;28;20037;-47
2023/01/30 18:49:58;;;;;;;9.40;6.28;;;;;;;;;;5044544;28;20108;-45
2023/01/30 18:52:24;;;;;;;10.80;6.60;;;;;;;;;;5044662;28;20047;-47
2023/01/30 18:54:50;;;;;;;10.07;6.55;;;;;;;;;;5044548;28;20032;-46
2023/01/30 18:57:16;;;;;;;9.68;6.50;;;;;;;;;;5044108;28;20021;-46
2023/01/30 18:59:42;;;;;;;10.35;6.50;;;;;;;;;;5044091;28;20029;-46
2023/01/30 19:02:11;;;;;;;9.80;6.28;;;;;;;;;;5043077;28;20044;-46
2023/01/30 19:04:38;;;;;;;11.38;6.63;;;;;;;;;;5044034;28;20025;-45
2023/01/30 19:07:04;;;;;;;10.10;6.13;;;;;;;;;;5044200;28;20021;-46
2023/01/30 19:09:30;;;;;;;11.05;6.80;;;;;;;;;;5047149;28;20041;-46
2023/01/30 19:14:41;;;;;;;10.95;6.95;;;;;;;;;;5048370;28;20109;-45
2023/01/30 19:17:09;;;;;;;10.80;6.50;;;;;;;;;;5047101;28;20155;-45
2023/01/30 19:19:36;;;;;;;9.18;6.05;;;;;;;;;;5048963;28;20037;-46
2023/01/30 19:22:03;;;;;;;10.55;6.70;;;;;;;;;;5048352;28;20565;-47
2023/01/30 19:24:29;;;;;;;11.45;6.57;;;;;;;;;;5048304;28;20151;-46
2023/01/30 19:26:55;;;;;;;8.63;5.68;;;;;;;;;;5047567;28;20067;-45
2023/01/30 19:29:21;;;;;;;11.45;6.95;;;;;;;;;;5048266;28;20040;-49
2023/01/30 19:31:47;;;;;;;12.18;7.45;;;;;;;;;;5047869;28;20048;-45
2023/01/30 19:34:13;;;;;;;10.80;6.88;;;;;;;;;;5047352;28;20048;-48
2023/01/30 19:36:40;;;;;;;11.10;6.50;;;;;;;;;;5046715;28;20036;-46
2023/01/30 19:39:06;;;;;;;10.85;6.75;;;;;;;;;;5048740;28;20025;-45
2023/01/30 19:41:36;;;;;;;10.45;6.20;;;;;;;;;;5048355;28;20044;-49
2023/01/30 19:44:03;;;;;;;10.77;6.30;;;;;;;;;;5046800;28;20029;-46
2023/01/30 19:46:29;;;;;;;10.07;6.10;;;;;;;;;;5047864;28;20025;-46
2023/01/30 19:48:56;;;;;;;10.35;6.47;;;;;;;;;;5047279;28;20032;-47
2023/01/30 19:51:29;;;;;;;9.18;5.88;;;;;;;;;;5046716;28;20029;-46
2023/01/30 19:53:57;;;;;;;10.95;6.65;;;;;;;;;;5047570;28;20039;-48
2023/01/30 19:56:24;;;;;;;9.02;6.07;;;;;;;;;;5059484;28;20044;-46
2023/01/30 19:58:50;;;;;;;8.98;6.07;;;;;;;;;;5047042;28;20032;-45
2023/01/30 20:01:17;;;;;;;10.45;6.45;;;;;;;;;;5048113;28;20395;-46
2023/01/30 20:03:43;;;;;;;10.18;6.53;;;;;;;;;;5048325;28;20035;-46
2023/01/30 20:06:11;;;;;;;9.55;5.72;;;;;;;;;;5047812;28;20428;-49